createdAt,value
2022-12-19T00:00:04.446Z,80.68
2022-12-19T00:02:39.792Z,80.63
2022-12-19T00:05:07.337Z,80.21
2022-12-19T00:07:34.316Z,81.06
2022-12-19T00:10:01.303Z,79.56
2022-12-19T00:12:29.887Z,80.67
2022-12-19T00:14:56.833Z,81.10
2022-12-19T00:17:25.863Z,80.76
2022-12-19T00:19:52.855Z,80.93
2022-12-19T00:22:19.813Z,81.28
2022-12-19T00:24:48.254Z,82.26
2022-12-19T00:27:15.296Z,81.89
2022-12-19T00:29:42.257Z,81.69
2022-12-19T00:32:09.278Z,82.43
2022-12-19T00:34:39.468Z,80.94
2022-12-19T00:37:06.411Z,81.05
2022-12-19T00:39:33.417Z,80.93
2022-12-19T00:42:00.440Z,79.46
2022-12-19T00:44:27.651Z,79.70
2022-12-19T00:46:54.633Z,79.73
2022-12-19T00:49:21.670Z,78.80
2022-12-19T00:51:48.689Z,79.83
2022-12-19T00:54:15.779Z,80.14
2022-12-19T00:56:43.163Z,80.00
2022-12-19T00:59:26.854Z,80.63
2022-12-19T01:02:27.499Z,81.44
2022-12-19T01:05:26.874Z,80.92
2022-12-19T01:08:02.978Z,81.47
2022-12-19T01:10:30.434Z,80.28
2022-12-19T01:12:57.624Z,81.05
2022-12-19T01:15:24.699Z,80.71
2022-12-19T01:17:51.776Z,81.07
2022-12-19T01:20:27.595Z,81.55
2022-12-19T01:23:23.487Z,82.25
2022-12-19T01:25:53.985Z,83.37
2022-12-19T01:28:22.630Z,82.92
2022-12-19T01:30:49.846Z,82.13
2022-12-19T01:33:20.970Z,82.88
2022-12-19T01:35:49.276Z,84.98
2022-12-19T01:38:18.883Z,85.39
2022-12-19T01:40:54.471Z,85.32
2022-12-19T01:43:22.439Z,85.79
2022-12-19T01:46:02.674Z,84.94
2022-12-19T01:49:06.056Z,85.29
2022-12-19T01:51:46.029Z,84.84
2022-12-19T01:54:19.448Z,84.92
2022-12-19T01:56:50.846Z,83.40
2022-12-19T01:59:22.870Z,85.00
2022-12-19T02:01:56.085Z,86.35
2022-12-19T02:04:28.248Z,86.51
2022-12-19T02:07:00.432Z,87.43
2022-12-19T02:09:37.009Z,87.35
2022-12-19T02:12:05.459Z,86.89
2022-12-19T02:14:36.684Z,87.02
2022-12-19T02:17:10.107Z,86.44
2022-12-19T02:19:52.438Z,86.34
2022-12-19T02:22:38.004Z,86.09
2022-12-19T02:25:13.797Z,85.41
2022-12-19T02:28:18.737Z,84.94
2022-12-19T02:31:10.771Z,83.54
2022-12-19T02:33:56.717Z,82.36
2022-12-19T02:36:57.499Z,82.12
2022-12-19T02:39:48.627Z,82.05
2022-12-19T02:42:24.984Z,81.02
2022-12-19T02:44:55.129Z,81.81
2022-12-19T02:47:22.435Z,82.85
2022-12-19T02:49:49.538Z,83.31
2022-12-19T02:52:19.961Z,82.45
2022-12-19T02:54:53.594Z,82.57
2022-12-19T02:57:28.111Z,82.85
2022-12-19T03:00:04.425Z,81.83
2022-12-19T03:02:43.537Z,81.70
2022-12-19T03:05:38.730Z,83.79
2022-12-19T03:08:24.398Z,83.37
2022-12-19T03:10:54.486Z,83.51
2022-12-19T03:13:35.568Z,82.48
2022-12-19T03:16:05.036Z,82.40
2022-12-19T03:18:33.675Z,81.69
2022-12-19T03:21:12.575Z,82.05
2022-12-19T03:23:40.515Z,81.66
2022-12-19T03:26:12.532Z,80.50
2022-12-19T03:28:54.923Z,79.46
2022-12-19T03:31:28.636Z,78.58
2022-12-19T03:34:00.136Z,77.30
2022-12-19T03:36:42.307Z,77.99
2022-12-19T03:39:13.031Z,78.26
2022-12-19T03:42:02.611Z,79.25
2022-12-19T03:44:35.183Z,79.38
2022-12-19T03:47:33.147Z,81.30
2022-12-19T03:50:00.325Z,81.53
2022-12-19T03:53:04.650Z,82.07
2022-12-19T03:55:41.459Z,83.23
2022-12-19T03:58:12.230Z,83.03
2022-12-19T04:00:43.781Z,82.85
2022-12-19T04:03:11.624Z,81.30
2022-12-19T04:05:41.703Z,79.57
2022-12-19T04:08:11.118Z,79.47
2022-12-19T04:10:55.270Z,78.20
2022-12-19T04:13:45.438Z,78.36
2022-12-19T04:16:53.050Z,76.94
2022-12-19T04:19:28.284Z,76.85
2022-12-19T04:22:08.248Z,76.28
2022-12-19T04:24:40.692Z,76.65
2022-12-19T04:27:09.915Z,77.54
2022-12-19T04:29:39.534Z,76.70
2022-12-19T04:32:08.850Z,78.16
2022-12-19T04:34:38.922Z,77.82
2022-12-19T04:37:09.957Z,75.82
2022-12-19T04:39:37.050Z,75.93
2022-12-19T04:42:04.253Z,76.52
2022-12-19T04:44:31.261Z,76.36
2022-12-19T04:46:58.515Z,77.12
2022-12-19T04:49:25.681Z,77.75
2022-12-19T04:51:52.702Z,77.74
2022-12-19T04:54:19.942Z,78.67
2022-12-19T04:56:46.959Z,77.10
2022-12-19T04:59:13.990Z,77.56
2022-12-19T05:01:41.076Z,78.71
2022-12-19T05:04:08.163Z,79.57
2022-12-19T05:06:36.556Z,79.33
2022-12-19T05:09:03.698Z,79.93
2022-12-19T05:11:30.860Z,80.15
2022-12-19T05:13:59.770Z,80.64
2022-12-19T05:16:26.831Z,81.72
2022-12-19T05:18:54.447Z,82.08
2022-12-19T05:21:23.057Z,82.25
2022-12-19T05:23:52.127Z,82.64
2022-12-19T05:26:19.755Z,82.21
2022-12-19T05:28:47.059Z,82.93
2022-12-19T05:31:19.897Z,83.95
2022-12-19T05:33:48.237Z,84.54
2022-12-19T05:36:16.698Z,83.49
2022-12-19T05:38:44.726Z,83.65
2022-12-19T05:41:16.787Z,83.50
2022-12-19T05:43:50.266Z,83.58
2022-12-19T05:46:17.583Z,84.11
2022-12-19T05:48:44.598Z,85.05
2022-12-19T05:51:13.384Z,85.89
2022-12-19T05:53:41.444Z,84.89
2022-12-19T05:56:11.199Z,83.46
2022-12-19T05:58:39.278Z,84.49
2022-12-19T06:01:08.380Z,85.38
2022-12-19T06:03:35.479Z,85.78
2022-12-19T06:06:09.001Z,86.29
2022-12-19T06:08:37.124Z,85.91
2022-12-19T06:11:06.633Z,85.47
2022-12-19T06:13:35.414Z,86.11
2022-12-19T06:16:16.673Z,85.67
2022-12-19T06:18:45.701Z,85.98
2022-12-19T06:21:15.612Z,85.96
2022-12-19T06:23:43.655Z,84.91
2022-12-19T06:26:18.592Z,85.50
2022-12-19T06:28:47.147Z,85.59
2022-12-19T06:31:14.678Z,86.13
2022-12-19T06:33:41.759Z,85.47
2022-12-19T06:36:14.858Z,85.20
2022-12-19T06:38:42.167Z,85.02
2022-12-19T06:41:28.989Z,86.04
2022-12-19T06:44:04.351Z,86.86
2022-12-19T06:46:31.702Z,85.83
2022-12-19T06:48:58.834Z,86.79
2022-12-19T06:51:26.138Z,86.20
2022-12-19T06:53:53.763Z,86.40
2022-12-19T06:56:20.759Z,86.27
2022-12-19T06:58:48.816Z,84.80
2022-12-19T07:01:23.934Z,85.49
2022-12-19T07:03:51.088Z,86.89
2022-12-19T07:06:18.072Z,86.25
2022-12-19T07:08:45.096Z,86.94
2022-12-19T07:11:12.151Z,87.50
2022-12-19T07:13:39.113Z,86.96
2022-12-19T07:16:06.944Z,85.52
2022-12-19T07:18:38.421Z,86.60
2022-12-19T07:21:07.908Z,85.21
2022-12-19T07:23:35.689Z,85.37
2022-12-19T07:26:03.893Z,84.39
2022-12-19T07:28:32.859Z,84.32
2022-12-19T07:30:59.854Z,84.83
2022-12-19T07:33:27.114Z,84.90
2022-12-19T07:35:54.361Z,84.35
2022-12-19T07:38:21.370Z,85.01
2022-12-19T07:40:48.394Z,85.18
2022-12-19T07:43:15.414Z,86.18
2022-12-19T07:45:43.832Z,89.47
2022-12-19T07:48:10.869Z,90.53
2022-12-19T07:50:38.105Z,89.28
2022-12-19T07:53:05.108Z,88.42
2022-12-19T07:55:32.151Z,88.56
2022-12-19T07:57:59.795Z,88.38
2022-12-19T08:00:26.859Z,89.13
2022-12-19T08:02:54.026Z,88.06
2022-12-19T08:05:21.205Z,88.12
2022-12-19T08:07:48.228Z,88.59
2022-12-19T08:10:15.926Z,88.87
2022-12-19T08:12:42.950Z,88.97
2022-12-19T08:15:10.933Z,88.27
2022-12-19T08:17:41.643Z,87.54
2022-12-19T08:20:09.747Z,87.12
2022-12-19T08:22:36.749Z,87.45
2022-12-19T08:25:04.508Z,87.36
2022-12-19T08:27:31.579Z,88.06
2022-12-19T08:29:58.610Z,90.34
2022-12-19T08:32:25.625Z,90.07
2022-12-19T08:34:52.649Z,90.97
2022-12-19T08:37:19.630Z,90.63
2022-12-19T08:39:46.752Z,89.68
2022-12-19T08:42:13.946Z,89.61
2022-12-19T08:44:40.959Z,90.12
2022-12-19T08:47:07.966Z,89.29
2022-12-19T08:49:35.165Z,89.70
2022-12-19T08:52:02.214Z,88.88
2022-12-19T08:54:29.241Z,89.85
2022-12-19T08:56:56.289Z,89.16
2022-12-19T08:59:31.837Z,88.31
2022-12-19T09:02:02.727Z,89.04
2022-12-19T09:05:16.090Z,89.36
2022-12-19T09:07:18.488Z,87.97
2022-12-19T09:09:45.660Z,87.73
2022-12-19T09:12:14.482Z,88.39
2022-12-19T09:14:41.510Z,87.74
2022-12-19T09:17:09.179Z,88.23
2022-12-19T09:19:36.358Z,87.74
2022-12-19T09:22:03.412Z,87.87
2022-12-19T09:24:30.385Z,87.57
2022-12-19T09:26:57.377Z,87.43
2022-12-19T09:29:24.861Z,88.12
2022-12-19T09:31:56.098Z,88.11
2022-12-19T09:34:37.058Z,87.82
2022-12-19T09:37:16.480Z,88.64
2022-12-19T09:39:46.465Z,87.35
2022-12-19T09:42:22.709Z,87.23
2022-12-19T09:45:09.868Z,86.90
2022-12-19T09:47:45.022Z,87.00
2022-12-19T09:50:32.191Z,88.42
2022-12-19T09:53:06.264Z,88.02
2022-12-19T09:55:37.796Z,87.88
2022-12-19T09:58:20.260Z,88.44
2022-12-19T10:00:57.395Z,88.97
2022-12-19T10:03:41.788Z,88.66
2022-12-19T10:07:18.273Z,87.80
2022-12-19T10:11:15.358Z,87.81
2022-12-19T10:12:45.398Z,87.61
2022-12-19T10:15:23.333Z,88.11
2022-12-19T10:18:12.094Z,88.45
2022-12-19T10:20:45.737Z,88.33
2022-12-19T10:23:38.631Z,89.22
2022-12-19T10:26:18.665Z,89.21
2022-12-19T10:28:48.561Z,87.88
2022-12-19T10:31:35.256Z,88.57
2022-12-19T10:34:24.200Z,89.81
2022-12-19T10:37:27.193Z,89.40
2022-12-19T10:39:59.387Z,91.92
2022-12-19T10:42:52.655Z,91.06
2022-12-19T10:45:22.598Z,90.03
2022-12-19T10:47:57.701Z,90.27
2022-12-19T10:50:29.205Z,90.47
2022-12-19T10:53:07.832Z,91.02
2022-12-19T10:55:46.318Z,91.08
2022-12-19T10:58:48.688Z,91.16
2022-12-19T11:01:30.609Z,90.63
2022-12-19T11:04:36.152Z,89.82
2022-12-19T11:07:03.837Z,90.67
2022-12-19T11:09:38.938Z,90.74
2022-12-19T11:16:32.267Z,91.20
2022-12-19T11:20:45.193Z,90.98
2022-12-19T11:27:29.939Z,91.72
2022-12-19T11:29:24.897Z,91.88
2022-12-19T11:30:43.364Z,92.32
2022-12-19T11:30:46.773Z,92.18
2022-12-19T11:33:18.911Z,93.04
2022-12-19T11:35:55.125Z,92.37
2022-12-19T11:39:00.732Z,93.83
2022-12-19T11:41:41.228Z,94.47
2022-12-19T11:44:13.903Z,93.53
2022-12-19T11:46:49.404Z,93.54
2022-12-19T11:49:37.446Z,93.80
2022-12-19T11:53:02.892Z,93.07
2022-12-19T11:55:21.692Z,94.30
2022-12-19T11:57:48.980Z,93.97
2022-12-19T12:00:22.018Z,93.35
2022-12-19T12:03:21.130Z,92.99
2022-12-19T12:05:50.109Z,92.36
2022-12-19T12:11:05.297Z,92.12
2022-12-19T12:17:22.965Z,91.46
2022-12-19T12:24:35.125Z,92.44
2022-12-19T12:31:12.075Z,91.77
2022-12-19T12:31:12.949Z,92.28
2022-12-19T12:31:13.772Z,92.50
2022-12-19T12:31:47.723Z,90.98
2022-12-19T12:32:02.059Z,91.93
2022-12-19T12:35:16.502Z,91.24
2022-12-19T12:40:04.833Z,92.16
2022-12-19T12:42:53.252Z,91.45
2022-12-19T12:45:31.155Z,91.25
2022-12-19T12:47:58.180Z,91.27
2022-12-19T12:50:27.108Z,91.08
2022-12-19T12:52:58.275Z,90.91
2022-12-19T12:55:31.347Z,90.08
2022-12-19T12:57:58.582Z,90.61
2022-12-19T13:00:34.914Z,90.40
2022-12-19T13:03:11.608Z,89.92
2022-12-19T13:05:47.632Z,89.82
2022-12-19T13:08:39.093Z,90.28
2022-12-19T13:11:55.987Z,90.82
2022-12-19T13:14:35.518Z,92.23
2022-12-19T13:17:07.029Z,92.06
2022-12-19T13:19:54.876Z,91.64
2022-12-19T13:22:43.486Z,91.84
2022-12-19T13:25:38.276Z,92.68
2022-12-19T13:28:23.394Z,92.76
2022-12-19T13:31:18.871Z,92.20
2022-12-19T13:33:56.059Z,92.65
2022-12-19T13:39:48.235Z,93.38
2022-12-19T13:40:04.861Z,94.38
2022-12-19T13:42:45.089Z,94.82
2022-12-19T13:45:12.044Z,94.24
2022-12-19T13:47:43.769Z,93.35
2022-12-19T13:50:30.506Z,93.46
2022-12-19T13:52:57.583Z,93.18
2022-12-19T13:55:28.943Z,92.44
2022-12-19T13:57:57.023Z,91.44
2022-12-19T14:00:42.318Z,92.37
2022-12-19T14:03:18.502Z,92.11
2022-12-19T14:06:16.266Z,91.89
2022-12-19T14:08:32.957Z,91.39
2022-12-19T14:11:41.660Z,91.98
2022-12-19T14:14:17.707Z,92.00
2022-12-19T14:16:49.106Z,92.41
2022-12-19T14:19:21.668Z,93.24
2022-12-19T14:22:10.962Z,92.67
2022-12-19T14:24:36.086Z,92.09
2022-12-19T14:28:25.426Z,92.61
2022-12-19T14:30:27.579Z,92.62
2022-12-19T14:33:39.211Z,92.49
2022-12-19T14:36:12.267Z,92.19
2022-12-19T14:39:23.614Z,91.87
2022-12-19T14:41:47.756Z,92.34
2022-12-19T14:52:34.658Z,92.82
2022-12-19T14:53:52.547Z,91.85
2022-12-19T14:54:08.374Z,92.25
2022-12-19T14:54:29.068Z,91.26
2022-12-19T14:59:03.079Z,91.89
2022-12-19T15:01:33.229Z,92.30
2022-12-19T15:04:50.342Z,92.99
2022-12-19T15:07:08.790Z,93.13
2022-12-19T15:11:03.347Z,93.63
2022-12-19T15:14:47.629Z,94.03
2022-12-19T15:16:05.748Z,94.33
2022-12-19T15:18:32.938Z,94.53
2022-12-19T15:21:02.827Z,94.91
2022-12-19T15:23:30.778Z,95.36
2022-12-19T15:26:05.322Z,94.72
2022-12-19T15:28:42.600Z,95.17
2022-12-19T15:31:24.459Z,95.26
2022-12-19T15:36:38.716Z,93.74
2022-12-19T15:39:09.055Z,94.66
2022-12-19T15:41:36.329Z,94.94
2022-12-19T15:44:31.545Z,95.38
2022-12-19T15:47:02.659Z,94.82
2022-12-19T15:49:31.647Z,95.39
2022-12-19T15:52:05.234Z,95.68
2022-12-19T15:54:49.729Z,95.56
2022-12-19T15:57:31.540Z,96.30
2022-12-19T16:00:01.677Z,96.19
2022-12-19T16:05:22.579Z,95.54
2022-12-19T16:07:49.975Z,96.18
2022-12-19T16:10:17.712Z,95.93
2022-12-19T16:12:56.715Z,96.51
2022-12-19T16:15:29.565Z,96.82
2022-12-19T16:17:58.059Z,96.90
2022-12-19T16:20:28.278Z,96.27
2022-12-19T16:22:55.523Z,96.35
2022-12-19T16:25:31.920Z,97.11
2022-12-19T16:28:00.630Z,97.00
2022-12-19T16:30:33.105Z,97.85
2022-12-19T16:33:00.487Z,97.34
2022-12-19T16:36:02.514Z,96.90
2022-12-19T16:38:17.190Z,96.32
2022-12-19T16:40:45.589Z,96.68
2022-12-19T16:43:21.549Z,96.35
2022-12-19T16:45:48.571Z,96.15
2022-12-19T16:48:24.120Z,96.28
2022-12-19T16:50:51.295Z,96.78
2022-12-19T16:53:19.096Z,96.24
2022-12-19T16:55:48.642Z,95.48
2022-12-19T16:58:20.380Z,96.21
2022-12-19T17:00:48.511Z,96.00
2022-12-19T17:03:41.019Z,95.73
2022-12-19T17:06:19.739Z,94.71
2022-12-19T17:08:47.399Z,94.86
2022-12-19T17:11:17.427Z,95.47
2022-12-19T17:13:47.802Z,94.38
2022-12-19T17:16:15.450Z,93.44
2022-12-19T17:18:43.673Z,94.04
2022-12-19T17:21:23.212Z,93.86
2022-12-19T17:23:50.525Z,93.04
2022-12-19T17:26:18.454Z,93.78
2022-12-19T17:28:48.638Z,92.96
2022-12-19T17:31:29.016Z,92.56
2022-12-19T17:33:58.295Z,93.10
2022-12-19T17:36:37.028Z,93.09
2022-12-19T17:39:21.675Z,93.89
2022-12-19T17:41:49.976Z,94.19
2022-12-19T17:44:17.725Z,93.66
2022-12-19T17:46:46.012Z,93.91
2022-12-19T17:49:20.766Z,94.56
2022-12-19T17:51:52.463Z,94.40
2022-12-19T17:54:21.020Z,93.37
2022-12-19T17:56:48.148Z,93.33
2022-12-19T17:59:17.375Z,93.98
2022-12-19T18:01:47.339Z,93.61
2022-12-19T18:04:17.481Z,93.33
2022-12-19T18:06:45.507Z,92.61
2022-12-19T18:09:18.967Z,92.17
2022-12-19T18:11:46.972Z,92.21
2022-12-19T18:14:14.528Z,92.69
2022-12-19T18:16:42.209Z,91.97
2022-12-19T18:19:18.977Z,91.67
2022-12-19T18:21:46.551Z,91.22
2022-12-19T18:24:14.912Z,91.13
2022-12-19T18:26:42.270Z,91.81
2022-12-19T18:29:09.824Z,92.65
2022-12-19T18:31:37.390Z,93.20
2022-12-19T18:34:07.967Z,92.70
2022-12-19T18:36:40.310Z,92.73
2022-12-19T18:39:19.669Z,92.03
2022-12-19T18:41:46.786Z,92.06
2022-12-19T18:44:14.252Z,92.43
2022-12-19T18:46:44.607Z,92.75
2022-12-19T18:49:15.929Z,92.03
2022-12-19T18:51:44.894Z,91.89
2022-12-19T18:54:22.296Z,92.52
2022-12-19T18:56:49.340Z,91.53
2022-12-19T18:59:16.351Z,91.92
2022-12-19T19:01:46.792Z,92.46
2022-12-19T19:04:18.125Z,92.45
2022-12-19T19:06:50.789Z,92.59
2022-12-19T19:09:19.989Z,92.16
2022-12-19T19:12:19.844Z,91.92
2022-12-19T19:14:46.814Z,91.70
2022-12-19T19:17:23.462Z,92.02
2022-12-19T19:19:50.642Z,92.91
2022-12-19T19:22:17.685Z,93.23
2022-12-19T19:24:44.687Z,92.02
2022-12-19T19:27:11.725Z,92.63
2022-12-19T19:29:39.014Z,92.94
2022-12-19T19:32:06.054Z,92.70
2022-12-19T19:34:37.559Z,92.79
2022-12-19T19:37:07.994Z,93.17
2022-12-19T19:39:35.815Z,92.64
2022-12-19T19:42:02.984Z,93.45
2022-12-19T19:44:30.305Z,92.90
2022-12-19T19:46:57.449Z,92.43
2022-12-19T19:49:24.563Z,92.26
2022-12-19T19:51:55.564Z,92.36
2022-12-19T19:54:25.595Z,92.72
2022-12-19T19:56:52.597Z,92.27
2022-12-19T19:59:19.902Z,92.00
2022-12-19T20:01:47.088Z,92.76
2022-12-19T20:04:14.886Z,92.34
2022-12-19T20:06:41.978Z,92.04
2022-12-19T20:09:09.069Z,91.98
2022-12-19T20:11:36.168Z,92.95
2022-12-19T20:14:04.582Z,93.42
2022-12-19T20:16:31.726Z,92.81
2022-12-19T20:18:58.862Z,93.16
2022-12-19T20:21:25.889Z,92.23
2022-12-19T20:23:53.165Z,92.58
2022-12-19T20:26:23.026Z,91.62
2022-12-19T20:28:51.404Z,90.93
2022-12-19T20:31:19.926Z,89.93
2022-12-19T20:33:48.639Z,90.67
2022-12-19T20:36:16.419Z,90.64
2022-12-19T20:38:43.780Z,90.75
2022-12-19T20:41:11.142Z,90.66
2022-12-19T20:43:38.809Z,90.16
2022-12-19T20:46:14.779Z,90.00
2022-12-19T20:48:42.369Z,90.88
2022-12-19T20:51:10.281Z,90.20
2022-12-19T20:53:38.801Z,89.58
2022-12-19T20:56:07.015Z,89.28
2022-12-19T20:58:35.837Z,88.68
2022-12-19T21:01:06.479Z,88.58
2022-12-19T21:03:34.075Z,88.20
2022-12-19T21:06:01.393Z,88.93
2022-12-19T21:08:28.669Z,88.21
2022-12-19T21:10:56.051Z,88.32
2022-12-19T21:13:23.609Z,88.20
2022-12-19T21:15:59.157Z,87.07
2022-12-19T21:18:26.948Z,87.87
2022-12-19T21:20:54.307Z,88.14
2022-12-19T21:23:22.754Z,88.62
2022-12-19T21:25:50.020Z,88.83
2022-12-19T21:28:17.323Z,89.10
2022-12-19T21:30:44.733Z,90.62
2022-12-19T21:33:11.744Z,90.78
2022-12-19T21:35:39.090Z,90.94
2022-12-19T21:38:06.368Z,91.34
2022-12-19T21:40:36.096Z,91.20
2022-12-19T21:43:11.239Z,90.23
2022-12-19T21:45:39.421Z,90.49
2022-12-19T21:48:06.622Z,90.26
2022-12-19T21:50:34.170Z,91.02
2022-12-19T21:53:01.274Z,90.99
2022-12-19T21:55:28.343Z,90.99
2022-12-19T21:57:55.502Z,90.14
2022-12-19T22:00:22.650Z,89.63
2022-12-19T22:03:12.557Z,90.08
2022-12-19T22:05:36.959Z,89.52
2022-12-19T22:08:04.163Z,89.11
2022-12-19T22:10:31.321Z,89.00
2022-12-19T22:12:58.267Z,89.18
2022-12-19T22:15:25.236Z,88.44
2022-12-19T22:17:52.244Z,87.73
2022-12-19T22:20:19.223Z,87.60
2022-12-19T22:22:46.303Z,88.51
2022-12-19T22:25:13.278Z,88.51
2022-12-19T22:27:40.226Z,89.58
2022-12-19T22:30:11.158Z,88.93
2022-12-19T22:32:38.447Z,89.53
2022-12-19T22:35:06.233Z,90.02
2022-12-19T22:37:33.334Z,90.66
2022-12-19T22:40:00.601Z,90.67
2022-12-19T22:42:28.134Z,89.87
2022-12-19T22:44:55.180Z,90.04
2022-12-19T22:47:22.262Z,90.41
2022-12-19T22:49:52.577Z,89.74
2022-12-19T22:52:19.807Z,90.21
2022-12-19T22:54:46.839Z,90.28
2022-12-19T22:57:13.817Z,90.01
2022-12-19T22:59:41.243Z,90.10
2022-12-19T23:02:08.874Z,90.39
2022-12-19T23:04:36.368Z,89.82
2022-12-19T23:07:03.389Z,89.28
2022-12-19T23:09:30.390Z,89.28
2022-12-19T23:11:57.402Z,89.20
2022-12-19T23:14:24.352Z,88.78
2022-12-19T23:16:51.593Z,88.48
2022-12-19T23:19:18.996Z,88.24
2022-12-19T23:21:46.549Z,88.39
2022-12-19T23:24:13.803Z,88.62
2022-12-19T23:26:41.517Z,88.47
2022-12-19T23:29:11.133Z,88.86
2022-12-19T23:31:44.275Z,89.20
2022-12-19T23:34:11.592Z,88.56
2022-12-19T23:37:09.722Z,88.08
2022-12-19T23:39:26.122Z,87.61
2022-12-19T23:41:53.098Z,88.34
2022-12-19T23:44:20.375Z,88.93
2022-12-19T23:46:47.365Z,90.27
2022-12-19T23:49:14.396Z,90.40
2022-12-19T23:51:41.453Z,89.30
2022-12-19T23:54:09.009Z,88.30
2022-12-19T23:56:36.488Z,88.92
2022-12-19T23:59:03.864Z,89.49
